createdAt,value
2022-12-08T10:41:24.412Z,12.05
2022-12-08T10:43:59.635Z,11.82
2022-12-08T10:46:28.514Z,11.05
2022-12-08T10:49:10.621Z,10.95
2022-12-08T10:51:42.155Z,10.88
2022-12-08T10:54:29.177Z,11.35
2022-12-08T10:56:57.247Z,11.45
2022-12-08T10:59:25.164Z,12.10
2022-12-08T11:01:54.680Z,10.38
2022-12-08T11:04:26.699Z,11.88
2022-12-08T11:06:53.717Z,9.73
2022-12-08T11:09:20.705Z,10.90
2022-12-08T11:11:57.756Z,10.93
2022-12-08T11:14:26.164Z,10.65
2022-12-08T11:16:56.841Z,11.15
2022-12-08T11:19:26.645Z,10.23
2022-12-08T11:21:54.275Z,11.02
2022-12-08T11:24:24.257Z,11.02
2022-12-08T11:27:00.215Z,10.32
2022-12-08T11:29:29.189Z,10.32
2022-12-08T11:32:11.772Z,10.13
2022-12-08T11:34:43.948Z,10.48
2022-12-08T11:37:37.377Z,9.55
2022-12-08T11:40:16.234Z,10.07
2022-12-08T11:43:03.694Z,10.60
2022-12-08T11:45:34.711Z,9.60
2022-12-08T11:48:16.322Z,10.07
2022-12-08T11:50:50.515Z,9.63
2022-12-08T11:53:33.877Z,9.70
2022-12-08T11:56:10.084Z,10.70
2022-12-08T11:58:55.880Z,8.43
2022-12-08T12:01:25.079Z,8.45
2022-12-08T12:04:03.220Z,8.48
2022-12-08T12:07:00.419Z,6.90
2022-12-08T12:10:11.460Z,7.15
2022-12-08T12:13:16.983Z,7.85
2022-12-08T12:16:05.307Z,6.90
2022-12-08T12:18:41.216Z,7.20
2022-12-08T12:21:15.221Z,8.23
2022-12-08T12:23:47.091Z,7.75
2022-12-08T12:28:54.504Z,7.15
2022-12-08T12:31:28.894Z,7.90
2022-12-08T12:34:06.847Z,7.40
2022-12-08T12:36:47.927Z,7.45
2022-12-08T12:39:17.755Z,7.40
2022-12-08T12:41:59.709Z,6.95
2022-12-08T12:47:01.463Z,7.25
2022-12-08T12:49:40.684Z,6.88
2022-12-08T12:52:16.860Z,6.80
2022-12-08T12:55:04.683Z,7.78
2022-12-08T12:57:39.644Z,6.82
2022-12-08T13:00:09.314Z,6.30
2022-12-08T13:02:36.532Z,7.80
2022-12-08T13:05:03.500Z,10.75
2022-12-08T13:07:35.700Z,17.27
2022-12-08T13:10:16.558Z,10.10
2022-12-08T13:12:46.042Z,9.65
2022-12-08T13:15:19.678Z,7.85
2022-12-08T13:17:48.988Z,7.75
2022-12-08T13:20:22.976Z,7.85
2022-12-08T13:22:50.143Z,8.52
2022-12-08T13:25:38.884Z,8.00
2022-12-08T13:28:15.881Z,7.40
2022-12-08T13:30:45.603Z,8.93
2022-12-08T13:33:38.242Z,9.95
2022-12-08T13:36:32.555Z,10.70
2022-12-08T13:39:01.283Z,8.13
2022-12-08T13:41:38.675Z,7.43
2022-12-08T13:58:41.806Z,7.55
2022-12-08T14:01:41.107Z,7.25
2022-12-08T14:04:42.519Z,8.15
2022-12-08T14:07:02.959Z,7.70
2022-12-08T14:09:36.660Z,7.82
2022-12-08T14:12:09.079Z,7.70
2022-12-08T14:15:01.717Z,8.57
2022-12-08T14:17:27.762Z,7.72
2022-12-08T14:19:57.729Z,7.65
2022-12-08T14:22:25.299Z,7.88
2022-12-08T14:24:54.221Z,7.95
2022-12-08T14:27:26.684Z,7.25
2022-12-08T14:29:59.890Z,7.20
2022-12-08T14:32:32.694Z,7.72
2022-12-08T14:35:08.591Z,8.10
2022-12-08T14:37:42.540Z,8.07
2022-12-08T14:40:22.723Z,7.72
2022-12-08T14:43:12.058Z,8.88
2022-12-08T14:45:39.010Z,9.20
2022-12-08T14:48:22.662Z,9.35
2022-12-08T14:51:05.313Z,9.32
2022-12-08T14:53:39.974Z,8.52
2022-12-08T14:56:33.236Z,10.13
2022-12-08T14:59:14.008Z,8.75
2022-12-08T15:01:43.062Z,8.07
2022-12-08T15:04:13.086Z,10.30
2022-12-08T15:07:01.406Z,9.05
2022-12-08T15:09:41.205Z,10.82
2022-12-08T15:12:14.382Z,11.18
2022-12-08T15:14:53.699Z,8.93
2022-12-08T15:17:35.294Z,8.43
2022-12-08T15:20:03.385Z,8.70
2022-12-08T15:22:30.877Z,8.15
2022-12-08T15:24:58.203Z,7.80
2022-12-08T15:27:25.661Z,8.10
2022-12-08T15:29:52.977Z,7.47
2022-12-08T15:32:22.865Z,8.07
2022-12-08T15:34:50.195Z,8.05
2022-12-08T15:37:25.316Z,7.40
2022-12-08T15:39:52.895Z,7.70
2022-12-08T15:42:19.904Z,7.53
2022-12-08T15:44:46.862Z,7.13
2022-12-08T15:47:19.288Z,6.95
2022-12-08T15:49:47.792Z,7.38
2022-12-08T15:52:18.365Z,7.20
2022-12-08T15:54:45.921Z,7.40
2022-12-08T16:00:51.343Z,8.07
2022-12-08T16:04:27.577Z,7.28
2022-12-08T16:09:25.957Z,7.35
2022-12-08T16:12:10.105Z,6.93
2022-12-08T16:17:26.398Z,8.25
2022-12-08T16:19:53.604Z,7.20
2022-12-08T16:25:20.299Z,7.60
2022-12-08T16:28:44.805Z,9.25
2022-12-08T16:30:40.480Z,7.80
2022-12-08T16:33:07.691Z,9.00
2022-12-08T16:35:34.721Z,9.50
2022-12-08T16:38:01.711Z,9.30
2022-12-08T16:40:28.795Z,7.80
2022-12-08T16:42:55.957Z,8.57
2022-12-08T16:45:30.073Z,9.20
2022-12-08T16:48:01.624Z,10.10
2022-12-08T16:50:31.562Z,9.73
2022-12-08T16:53:00.582Z,9.90
2022-12-08T16:55:28.033Z,9.48
2022-12-08T16:57:55.421Z,9.23
2022-12-08T17:00:27.970Z,10.60
2022-12-08T17:02:55.248Z,10.18
2022-12-08T17:05:24.847Z,9.60
2022-12-08T17:07:53.236Z,11.00
2022-12-08T17:10:23.017Z,9.77
2022-12-08T17:12:50.660Z,10.13
2022-12-08T17:15:21.147Z,10.95
2022-12-08T17:17:48.673Z,10.60
2022-12-08T17:20:18.630Z,11.40
2022-12-08T17:22:46.095Z,12.65
2022-12-08T17:25:13.378Z,12.82
2022-12-08T17:27:41.312Z,12.55
2022-12-08T17:30:10.756Z,22.75
2022-12-08T17:32:38.605Z,18.30
2022-12-08T17:35:06.274Z,13.85
2022-12-08T17:37:33.987Z,11.35
2022-12-08T17:40:01.610Z,12.45
2022-12-08T17:42:28.808Z,13.52
2022-12-08T17:44:55.834Z,10.35
2022-12-08T17:47:22.916Z,9.43
2022-12-08T17:49:50.031Z,9.45
2022-12-08T17:52:17.005Z,9.88
2022-12-08T17:54:44.139Z,9.57
2022-12-08T17:57:11.234Z,9.73
2022-12-08T17:59:38.219Z,9.13
2022-12-08T18:02:06.508Z,11.93
2022-12-08T18:04:33.591Z,10.05
2022-12-08T18:07:00.657Z,13.20
2022-12-08T18:09:29.932Z,12.10
2022-12-08T18:11:56.943Z,12.05
2022-12-08T18:14:23.978Z,13.00
2022-12-08T18:16:51.065Z,11.55
2022-12-08T18:19:18.117Z,12.07
2022-12-08T18:21:45.126Z,12.10
2022-12-08T18:24:17.650Z,12.80
2022-12-08T18:26:45.240Z,12.43
2022-12-08T18:29:12.286Z,12.50
2022-12-08T18:31:39.290Z,12.18
2022-12-08T18:34:06.361Z,10.95
2022-12-08T18:36:34.426Z,10.57
2022-12-08T18:39:05.756Z,10.82
2022-12-08T18:41:35.848Z,10.68
2022-12-08T18:44:02.902Z,12.70
2022-12-08T18:46:30.076Z,13.35
2022-12-08T18:48:57.144Z,11.63
2022-12-08T18:51:24.217Z,11.00
2022-12-08T18:53:51.763Z,11.15
2022-12-08T18:56:21.516Z,11.80
2022-12-08T18:58:48.642Z,15.95
2022-12-08T19:01:15.743Z,15.30
2022-12-08T19:03:52.831Z,14.57
2022-12-08T19:06:30.049Z,14.07
2022-12-08T19:08:57.558Z,11.10
2022-12-08T19:11:27.646Z,12.40
2022-12-08T19:13:55.571Z,10.75
2022-12-08T19:16:23.142Z,11.27
2022-12-08T19:18:50.343Z,12.93
2022-12-08T19:21:17.961Z,10.77
2022-12-08T19:23:45.067Z,13.20
2022-12-08T19:26:12.124Z,12.00
2022-12-08T19:28:39.122Z,11.98
2022-12-08T19:31:07.918Z,13.00
2022-12-08T19:33:35.508Z,11.73
2022-12-08T19:36:12.175Z,12.25
2022-12-08T19:38:40.006Z,13.30
2022-12-08T19:41:08.464Z,12.63
2022-12-08T19:43:35.443Z,12.07
2022-12-08T19:46:02.578Z,12.95
2022-12-08T19:48:29.635Z,13.77
2022-12-08T19:50:57.117Z,16.58
2022-12-08T19:53:24.184Z,17.25
2022-12-08T19:55:51.340Z,33.42
2022-12-08T19:58:18.628Z,15.13
2022-12-08T20:00:48.301Z,18.42
2022-12-08T20:03:17.304Z,17.02
2022-12-08T20:05:45.591Z,13.65
2022-12-08T20:08:12.651Z,13.77
2022-12-08T20:10:43.494Z,12.73
2022-12-08T20:13:11.403Z,13.37
2022-12-08T20:15:38.451Z,12.95
2022-12-08T20:18:05.815Z,13.75
2022-12-08T20:20:32.969Z,12.82
2022-12-08T20:22:59.994Z,13.40
2022-12-08T20:25:27.177Z,14.00
2022-12-08T20:27:54.259Z,14.48
2022-12-08T20:30:21.243Z,14.40
2022-12-08T20:32:48.260Z,12.98
2022-12-08T20:35:16.085Z,13.80
2022-12-08T20:37:43.161Z,14.55
2022-12-08T20:40:13.503Z,13.27
2022-12-08T20:42:40.625Z,12.23
2022-12-08T20:45:08.271Z,13.07
2022-12-08T20:47:36.686Z,12.68
2022-12-08T20:50:05.998Z,12.82
2022-12-08T20:52:33.259Z,12.30
2022-12-08T20:55:00.347Z,12.52
2022-12-08T20:57:27.511Z,13.30
2022-12-08T20:59:54.483Z,13.40
2022-12-08T21:02:21.633Z,13.98
2022-12-08T21:04:48.942Z,12.65
2022-12-08T21:07:16.144Z,13.23
2022-12-08T21:09:44.088Z,13.10
2022-12-08T21:12:11.312Z,14.15
2022-12-08T21:14:38.434Z,13.45
2022-12-08T21:17:05.705Z,14.52
2022-12-08T21:19:32.975Z,12.52
2022-12-08T21:22:00.075Z,13.25
2022-12-08T21:24:33.753Z,13.20
2022-12-08T21:27:01.617Z,14.63
2022-12-08T21:29:28.631Z,15.13
2022-12-08T21:31:58.655Z,13.40
2022-12-08T21:34:26.612Z,14.07
2022-12-08T21:36:53.669Z,13.27
2022-12-08T21:39:20.818Z,12.32
2022-12-08T21:41:47.974Z,13.93
2022-12-08T21:44:16.759Z,13.20
2022-12-08T21:46:44.643Z,12.88
2022-12-08T21:49:11.985Z,13.60
2022-12-08T21:51:39.177Z,13.07
2022-12-08T21:54:06.172Z,13.13
2022-12-08T21:56:33.281Z,13.75
2022-12-08T21:59:00.542Z,12.90
2022-12-08T22:01:27.678Z,14.40
2022-12-08T22:03:54.987Z,12.07
2022-12-08T22:06:22.131Z,12.80
2022-12-08T22:08:49.152Z,14.05
2022-12-08T22:11:16.470Z,12.43
2022-12-08T22:13:43.771Z,13.73
2022-12-08T22:16:12.620Z,12.55
2022-12-08T22:18:40.633Z,11.70
2022-12-08T22:21:16.372Z,13.60
2022-12-08T22:23:44.464Z,12.88
2022-12-08T22:26:11.789Z,14.82
2022-12-08T22:28:41.094Z,13.73
2022-12-08T22:31:19.332Z,14.10
2022-12-08T22:33:47.594Z,12.88
2022-12-08T22:36:21.286Z,13.48
2022-12-08T22:38:48.738Z,13.77
2022-12-08T22:41:16.787Z,13.20
2022-12-08T22:43:44.797Z,13.10
2022-12-08T22:46:18.115Z,12.93
2022-12-08T22:48:45.671Z,11.55
2022-12-08T22:51:13.949Z,11.57
2022-12-08T22:53:41.254Z,13.13
2022-12-08T22:56:11.034Z,12.63
2022-12-08T22:58:39.474Z,12.88
2022-12-08T23:01:08.459Z,13.68
2022-12-08T23:03:35.610Z,12.63
2022-12-08T23:06:11.622Z,12.40
2022-12-08T23:08:38.866Z,12.90
2022-12-08T23:11:06.176Z,13.50
2022-12-08T23:13:33.200Z,13.15
2022-12-08T23:16:00.248Z,14.57
2022-12-08T23:18:27.313Z,13.63
2022-12-08T23:20:54.436Z,13.25
2022-12-08T23:23:21.638Z,13.55
2022-12-08T23:25:48.915Z,14.63
2022-12-08T23:28:16.174Z,14.65
2022-12-08T23:30:43.196Z,13.88
2022-12-08T23:33:10.223Z,11.77
2022-12-08T23:35:37.648Z,12.52
2022-12-08T23:38:04.698Z,13.95
2022-12-08T23:40:31.932Z,13.52
2022-12-08T23:42:59.162Z,12.93
2022-12-08T23:45:26.294Z,12.18
2022-12-08T23:47:53.337Z,13.05
2022-12-08T23:50:20.284Z,13.27
2022-12-08T23:52:47.355Z,13.65
2022-12-08T23:55:14.527Z,13.90
2022-12-08T23:57:41.576Z,13.90
